WMKM/MKZ METAR and TAF weather

Enter ICAO airport designator
Station Type Date Time Source
WMKM METAR 2021/10/22 19:00 UTC NOAA

WMKM 221900Z 00000KT 7000 FEW010 FEW017CB 26/25 Q1012


Station Type Date Time Source
WMKM Decoded METAR 2021/10/22 19:00 UTC NOAA

Malacca, Malaysia (WMKM) 02-16N 102-15E 9M
Oct 22, 2021 - 03:00 PM EDT / 2021.10.22 1900 UTC
Wind: Calm:0
Visibility: 4 mile(s):0
Sky conditions: mostly clear
Weather: Cumulonimbus clouds observed
Temperature: 78 F (26 C)
Dew Point: 77 F (25 C)
Relative Humidity: 94%
Pressure (altimeter): 29.88 in. Hg (1012 hPa)
ob: WMKM 221900Z 00000KT 7000 FEW010 FEW017CB 26/25 Q1012
cycle: 19

Station Type Date Time Source
WMKM TAF 2021/10/22 18:00 UTC NOAA

TAF WMKM 221700Z 2218/2318 VRB02KT 9999 FEW018
TEMPO 2303/2307 27010KT 5000 TSRA FEW017CB

Example: see airport list